createdAt,value
2019-04-23T00:01:05.187Z,0.00
2019-04-23T00:01:50.964Z,0.00
2019-04-23T00:02:50.707Z,0.00
2019-04-23T00:03:47.540Z,0.00
2019-04-23T00:04:48.025Z,0.00
2019-04-23T00:05:48.127Z,0.00
2019-04-23T00:06:57.441Z,0.00
2019-04-23T00:08:04.570Z,0.00
2019-04-23T00:09:47.050Z,0.00
2019-04-23T00:10:55.451Z,0.00
2019-04-23T00:12:50.952Z,0.00
2019-04-23T00:13:50.279Z,0.00
2019-04-23T00:14:55.000Z,0.00
2019-04-23T00:15:55.302Z,0.00
2019-04-23T00:16:54.468Z,0.00
2019-04-23T00:18:46.725Z,0.00
2019-04-23T00:19:47.337Z,0.00
2019-04-23T00:20:54.947Z,0.00
2019-04-23T00:22:13.840Z,0.00
2019-04-23T00:22:54.741Z,0.00
2019-04-23T00:23:53.385Z,0.00
2019-04-23T00:25:53.763Z,0.00
2019-04-23T00:26:52.139Z,0.00
2019-04-23T00:27:49.879Z,0.00
2019-04-23T00:29:56.107Z,0.00
2019-04-23T00:31:56.181Z,0.00
2019-04-23T00:32:48.080Z,0.00
2019-04-23T00:34:56.456Z,0.00
2019-04-23T00:35:53.387Z,0.00
2019-04-23T00:36:51.815Z,0.00
2019-04-23T00:37:47.704Z,0.00
2019-04-23T00:39:01.358Z,0.00
2019-04-23T00:40:53.943Z,0.00
2019-04-23T00:41:54.589Z,0.00
2019-04-23T00:42:47.820Z,0.00
2019-04-23T00:43:59.495Z,0.00
2019-04-23T00:44:54.296Z,0.00
2019-04-23T00:45:59.327Z,0.00
2019-04-23T00:46:48.651Z,0.00
2019-04-23T00:47:49.635Z,0.00
2019-04-23T00:50:02.155Z,0.00
2019-04-23T00:51:50.122Z,0.00
2019-04-23T00:52:50.129Z,0.00
2019-04-23T00:53:54.711Z,0.00
2019-04-23T00:54:58.019Z,0.00
2019-04-23T00:56:54.435Z,0.00
2019-04-23T00:57:50.531Z,0.00
2019-04-23T00:58:57.906Z,0.00
2019-04-23T01:00:01.904Z,0.00
2019-04-23T01:02:53.315Z,0.00
2019-04-23T01:03:55.231Z,0.00
2019-04-23T01:04:58.551Z,0.00
2019-04-23T01:06:52.321Z,0.00
2019-04-23T01:07:51.532Z,0.00
2019-04-23T01:08:50.679Z,0.00
2019-04-23T01:09:56.225Z,0.00
2019-04-23T01:10:59.850Z,0.00
2019-04-23T01:11:56.647Z,0.00
2019-04-23T01:12:51.205Z,0.00
2019-04-23T01:14:50.062Z,0.00
2019-04-23T01:15:53.683Z,0.00
2019-04-23T01:16:48.410Z,0.00
2019-04-23T01:17:53.127Z,0.00
2019-04-23T01:18:54.643Z,0.00
2019-04-23T01:19:49.556Z,0.00
2019-04-23T01:20:52.802Z,0.00
2019-04-23T01:21:30.781Z,0.00
2019-04-23T01:22:31.570Z,0.00
2019-04-23T01:23:37.705Z,0.00
2019-04-23T01:24:34.498Z,0.00
2019-04-23T01:25:43.643Z,0.00
2019-04-23T01:26:57.557Z,0.00
2019-04-23T01:28:09.366Z,0.00
2019-04-23T01:28:55.935Z,0.00
2019-04-23T01:29:58.614Z,0.00
2019-04-23T01:31:58.535Z,0.00
2019-04-23T01:32:54.817Z,0.00
2019-04-23T01:33:56.715Z,0.00
2019-04-23T01:35:09.433Z,0.00
2019-04-23T01:36:09.708Z,0.00
2019-04-23T01:36:56.136Z,0.00
2019-04-23T01:37:52.369Z,0.00
2019-04-23T01:39:00.288Z,0.00
2019-04-23T01:39:58.127Z,0.00
2019-04-23T01:40:53.826Z,0.00
2019-04-23T01:42:08.487Z,0.00
2019-04-23T01:43:07.971Z,0.00
2019-04-23T01:43:50.561Z,0.00
2019-04-23T01:45:01.403Z,0.00
2019-04-23T01:45:56.242Z,0.00
2019-04-23T01:47:00.871Z,0.00
2019-04-23T01:47:54.830Z,0.00
2019-04-23T01:48:58.223Z,0.00
2019-04-23T01:50:01.561Z,0.00
2019-04-23T01:52:01.645Z,0.00
2019-04-23T01:53:00.747Z,0.00
2019-04-23T01:53:57.315Z,0.00
2019-04-23T01:55:01.550Z,0.00
2019-04-23T01:56:03.172Z,0.00
2019-04-23T01:56:56.713Z,0.00
2019-04-23T01:58:05.831Z,0.00
2019-04-23T01:59:02.413Z,0.00
2019-04-23T02:00:03.322Z,0.00
2019-04-23T02:01:58.483Z,0.00
2019-04-23T02:04:06.388Z,0.00
2019-04-23T02:06:03.205Z,0.00
2019-04-23T02:07:03.118Z,0.00
2019-04-23T02:09:00.589Z,0.00
2019-04-23T02:11:04.783Z,0.00
2019-04-23T02:12:01.042Z,0.00
2019-04-23T02:13:01.312Z,0.00
2019-04-23T02:15:10.277Z,0.00
2019-04-23T02:16:10.483Z,0.00
2019-04-23T02:17:01.217Z,0.00
2019-04-23T02:18:10.449Z,0.00
2019-04-23T02:19:18.214Z,0.00
2019-04-23T02:21:12.942Z,0.00
2019-04-23T02:22:01.250Z,0.00
2019-04-23T02:23:07.374Z,0.00
2019-04-23T02:23:55.169Z,0.00
2019-04-23T02:25:03.580Z,0.00
2019-04-23T02:26:55.534Z,0.00
2019-04-23T02:28:05.018Z,0.00
2019-04-23T02:30:15.821Z,0.00
2019-04-23T02:31:21.324Z,0.00
2019-04-23T02:32:03.333Z,0.00
2019-04-23T02:34:12.189Z,0.00
2019-04-23T02:37:19.359Z,0.00
2019-04-23T02:39:03.254Z,0.00
2019-04-23T02:40:16.098Z,0.00
2019-04-23T02:43:13.100Z,0.00
2019-04-23T02:44:11.453Z,0.00
2019-04-23T02:45:03.054Z,0.00
2019-04-23T02:50:29.201Z,0.00
2019-04-23T02:51:04.913Z,0.00
2019-04-23T02:52:09.910Z,0.00
2019-04-23T02:54:15.641Z,0.00
2019-04-23T02:58:12.182Z,0.00
2019-04-23T03:00:22.544Z,0.00
2019-04-23T03:02:30.242Z,0.00
2019-04-23T03:03:08.153Z,0.00
2019-04-23T03:04:14.949Z,0.00
2019-04-23T03:05:01.905Z,0.00
2019-04-23T03:06:09.644Z,0.00
2019-04-23T03:07:59.963Z,0.00
2019-04-23T03:09:23.735Z,0.00
2019-04-23T03:12:18.407Z,0.00
2019-04-23T03:23:19.272Z,0.00
2019-04-23T03:24:26.014Z,0.00
2019-04-23T03:25:12.908Z,0.00
2019-04-23T03:26:15.607Z,0.00
2019-04-23T03:27:17.131Z,0.00
2019-04-23T03:28:11.882Z,0.00
2019-04-23T03:35:10.493Z,0.00
2019-04-23T03:38:56.300Z,0.00
2019-04-23T03:40:13.923Z,0.00
2019-04-23T03:43:18.943Z,0.00
2019-04-23T03:44:05.198Z,0.00
2019-04-23T03:45:15.989Z,0.00
2019-04-23T03:47:13.827Z,0.00
2019-04-23T03:48:17.927Z,0.00
2019-04-23T03:49:05.553Z,0.00
2019-04-23T03:51:03.046Z,0.00
2019-04-23T03:52:16.934Z,0.00
2019-04-23T03:53:03.555Z,0.00
2019-04-23T03:54:26.332Z,0.00
2019-04-23T03:55:11.733Z,0.00
2019-04-23T03:58:15.971Z,4.00
2019-04-23T03:59:11.364Z,0.00
2019-04-23T04:00:12.544Z,0.00
2019-04-23T04:01:13.961Z,4.00
2019-04-23T04:05:10.261Z,4.00
2019-04-23T04:06:13.875Z,4.00
2019-04-23T04:07:21.969Z,8.00
2019-04-23T04:08:13.277Z,8.00
2019-04-23T04:09:23.333Z,12.00
2019-04-23T04:10:11.544Z,12.00
2019-04-23T04:11:10.924Z,16.00
2019-04-23T04:12:14.305Z,16.00
2019-04-23T04:13:13.160Z,20.00
2019-04-23T04:15:24.436Z,28.00
2019-04-23T04:17:15.948Z,36.00
2019-04-23T04:18:21.283Z,36.00
2019-04-23T04:22:21.502Z,56.00
2019-04-23T04:23:19.506Z,64.00
2019-04-23T04:24:29.549Z,72.00
2019-04-23T04:27:22.167Z,96.00
2019-04-23T04:29:32.466Z,112.00
2019-04-23T04:30:19.218Z,120.00
2019-04-23T04:31:16.275Z,128.00
2019-04-23T04:32:14.900Z,136.00
2019-04-23T04:33:26.248Z,144.00
2019-04-23T04:34:32.603Z,156.00
2019-04-23T04:35:16.177Z,164.00
2019-04-23T04:36:14.258Z,172.00
2019-04-23T04:37:37.768Z,188.00
2019-04-23T04:39:00.651Z,204.00
2019-04-23T04:42:10.429Z,244.00
2019-04-23T04:45:12.250Z,284.00
2019-04-23T04:48:01.299Z,324.00
2019-04-23T04:49:16.674Z,336.00
2019-04-23T04:52:22.681Z,384.00
2019-04-23T04:54:13.917Z,412.00
2019-04-23T04:56:18.919Z,440.00
2019-04-23T04:58:12.684Z,472.00
2019-04-23T04:59:24.566Z,488.00
2019-04-23T05:02:14.554Z,536.00
2019-04-23T05:03:19.251Z,548.00
2019-04-23T05:04:10.938Z,560.00
2019-04-23T05:05:31.376Z,576.00
2019-04-23T05:06:18.559Z,592.00
2019-04-23T05:07:11.179Z,604.00
2019-04-23T05:09:17.001Z,632.00
2019-04-23T05:10:16.586Z,644.00
2019-04-23T05:12:18.475Z,668.00
2019-04-23T05:13:30.219Z,684.00
2019-04-23T05:15:16.557Z,700.00
2019-04-23T05:16:07.957Z,712.00
2019-04-23T05:17:28.106Z,724.00
2019-04-23T05:19:22.297Z,744.00
2019-04-23T05:22:10.184Z,776.00
2019-04-23T05:23:16.374Z,784.00
2019-04-23T05:25:05.512Z,808.00
2019-04-23T05:26:13.963Z,820.00
2019-04-23T05:27:04.743Z,836.00
2019-04-23T05:28:28.526Z,848.00
2019-04-23T05:29:04.855Z,868.00
2019-04-23T05:30:07.828Z,876.00
2019-04-23T05:31:05.797Z,888.00
2019-04-23T05:32:10.103Z,896.00
2019-04-23T05:33:12.530Z,908.00
2019-04-23T05:34:02.914Z,920.00
2019-04-23T05:35:16.881Z,928.00
2019-04-23T05:37:12.957Z,952.00
2019-04-23T05:40:15.637Z,980.00
2019-04-23T05:41:09.970Z,984.00
2019-04-23T05:42:04.325Z,988.00
2019-04-23T05:43:03.509Z,996.00
2019-04-23T05:44:10.858Z,1000.00
2019-04-23T05:45:06.111Z,1008.00
2019-04-23T05:46:04.454Z,1012.00
2019-04-23T05:50:11.508Z,1048.00
2019-04-23T05:51:16.358Z,1056.00
2019-04-23T05:52:14.820Z,1072.00
2019-04-23T05:53:11.492Z,1084.00
2019-04-23T05:54:08.927Z,1096.00
2019-04-23T05:56:08.491Z,1128.00
2019-04-23T05:57:01.700Z,1148.00
2019-04-23T06:00:07.694Z,1204.00
2019-04-23T06:01:25.173Z,1224.00
2019-04-23T06:02:19.720Z,1244.00
2019-04-23T06:03:11.300Z,1264.00
2019-04-23T06:05:13.108Z,1296.00
2019-04-23T06:06:11.208Z,1304.00
2019-04-23T06:07:28.965Z,1320.00
2019-04-23T06:08:12.872Z,1328.00
2019-04-23T06:09:09.120Z,1332.00
2019-04-23T06:10:04.959Z,1340.00
2019-04-23T06:11:15.159Z,1336.00
2019-04-23T06:13:04.730Z,1364.00
2019-04-23T06:14:15.159Z,1376.00
2019-04-23T06:15:05.036Z,1388.00
2019-04-23T06:16:10.475Z,1400.00
2019-04-23T06:18:11.646Z,1428.00
2019-04-23T06:20:10.146Z,1452.00
2019-04-23T06:21:12.286Z,1476.00
2019-04-23T06:23:18.161Z,1516.00
2019-04-23T06:24:19.894Z,1532.00
2019-04-23T06:25:12.539Z,1536.00
2019-04-23T06:26:20.166Z,1540.00
2019-04-23T06:27:06.779Z,1548.00
2019-04-23T06:28:14.595Z,1572.00
2019-04-23T06:29:16.223Z,1604.00
2019-04-23T06:30:09.685Z,1628.00
2019-04-23T06:31:09.790Z,1648.00
2019-04-23T06:32:07.906Z,1676.00
2019-04-23T06:33:18.058Z,1692.00
2019-04-23T06:34:15.438Z,1708.00
2019-04-23T06:35:06.668Z,1724.00
2019-04-23T06:38:32.762Z,1804.00
2019-04-23T06:39:02.933Z,1860.00
2019-04-23T06:40:10.130Z,1908.00
2019-04-23T06:41:13.177Z,1920.00
2019-04-23T06:42:08.051Z,1924.00
2019-04-23T06:43:11.530Z,1920.00
2019-04-23T06:44:15.975Z,1940.00
2019-04-23T06:45:26.385Z,1968.00
2019-04-23T06:46:05.685Z,1976.00
2019-04-23T06:47:07.000Z,1996.00
2019-04-23T06:49:11.668Z,2012.00
2019-04-23T06:50:08.203Z,2032.00
2019-04-23T06:51:12.812Z,2072.00
2019-04-23T06:52:15.247Z,2108.00
2019-04-23T06:54:12.353Z,2176.00
2019-04-23T06:55:12.274Z,2188.00
2019-04-23T06:56:13.963Z,2204.00
2019-04-23T06:57:15.326Z,2208.00
2019-04-23T06:58:17.055Z,2224.00
2019-04-23T06:59:11.979Z,2248.00
2019-04-23T07:00:06.291Z,2256.00
2019-04-23T07:01:05.575Z,2280.00
2019-04-23T07:02:11.820Z,2296.00
2019-04-23T07:03:18.182Z,2300.00
2019-04-23T07:04:13.761Z,2304.00
2019-04-23T07:05:10.432Z,2316.00
2019-04-23T07:07:31.606Z,2312.00
2019-04-23T07:08:20.453Z,2324.00
2019-04-23T07:09:12.072Z,2320.00
2019-04-23T07:10:03.966Z,2324.00
2019-04-23T07:11:18.901Z,2312.00
2019-04-23T07:12:08.899Z,2308.00
2019-04-23T07:13:18.816Z,2328.00
2019-04-23T07:14:24.408Z,2336.00
2019-04-23T07:15:30.811Z,2344.00
2019-04-23T07:16:09.488Z,2364.00
2019-04-23T07:17:18.512Z,2388.00
2019-04-23T07:18:10.070Z,2400.00
2019-04-23T07:20:06.913Z,2448.00
2019-04-23T07:21:13.478Z,2452.00
2019-04-23T07:22:14.498Z,2456.00
2019-04-23T07:23:13.546Z,2472.00
2019-04-23T07:24:08.590Z,2492.00
2019-04-23T07:25:08.243Z,2504.00
2019-04-23T07:26:15.500Z,2492.00
2019-04-23T07:27:11.805Z,2524.00
2019-04-23T07:28:16.715Z,2560.00
2019-04-23T07:29:08.097Z,2584.00
2019-04-23T07:30:13.666Z,2596.00
2019-04-23T07:31:14.074Z,2608.00
2019-04-23T07:32:05.321Z,2632.00
2019-04-23T07:33:11.218Z,2656.00
2019-04-23T07:35:13.654Z,2708.00
2019-04-23T07:36:15.979Z,2688.00
2019-04-23T07:38:21.914Z,2704.00
2019-04-23T07:41:19.464Z,2756.00
2019-04-23T07:43:08.766Z,2792.00
2019-04-23T07:44:23.095Z,2808.00
2019-04-23T07:45:12.454Z,2836.00
2019-04-23T07:49:11.402Z,2904.00
2019-04-23T07:51:08.669Z,2928.00
2019-04-23T07:53:18.902Z,2964.00
2019-04-23T07:54:17.618Z,2972.00
2019-04-23T07:55:22.011Z,2988.00
2019-04-23T07:59:14.308Z,3040.00
2019-04-23T08:00:13.660Z,3036.00
2019-04-23T08:01:13.793Z,3032.00
2019-04-23T08:02:14.135Z,3048.00
2019-04-23T08:03:17.765Z,3060.00
2019-04-23T08:04:09.180Z,3080.00
2019-04-23T08:05:15.634Z,3096.00
2019-04-23T08:06:10.198Z,3108.00
2019-04-23T08:07:16.409Z,3112.00
2019-04-23T08:08:07.291Z,3124.00
2019-04-23T08:09:09.123Z,3140.00
2019-04-23T08:11:30.805Z,3180.00
2019-04-23T08:12:19.176Z,3192.00
2019-04-23T08:13:15.589Z,3188.00
2019-04-23T08:14:08.528Z,3200.00
2019-04-23T08:15:14.602Z,3200.00
2019-04-23T08:16:23.035Z,3196.00
2019-04-23T08:17:14.413Z,3192.00
2019-04-23T08:18:13.450Z,3188.00
2019-04-23T08:19:11.114Z,3204.00
2019-04-23T08:20:32.231Z,3220.00
2019-04-23T08:21:12.034Z,3244.00
2019-04-23T08:22:20.076Z,3268.00
2019-04-23T08:23:13.761Z,3256.00
2019-04-23T08:24:35.931Z,3260.00
2019-04-23T08:25:15.816Z,3272.00
2019-04-23T08:26:22.186Z,3272.00
2019-04-23T08:27:24.081Z,3276.00
2019-04-23T08:28:13.623Z,3280.00
2019-04-23T08:30:04.296Z,3288.00
2019-04-23T08:31:15.138Z,3300.00
2019-04-23T08:32:18.623Z,3308.00
2019-04-23T08:33:12.263Z,3316.00
2019-04-23T08:36:23.875Z,3316.00
2019-04-23T08:37:36.380Z,3320.00
2019-04-23T08:39:10.301Z,3320.00
2019-04-23T08:40:13.328Z,3316.00
2019-04-23T08:42:33.351Z,3304.00
2019-04-23T08:43:18.045Z,3300.00
2019-04-23T08:44:21.616Z,3284.00
2019-04-23T08:45:15.304Z,3264.00
2019-04-23T08:46:13.488Z,3236.00
2019-04-23T08:48:27.546Z,3180.00
2019-04-23T08:49:22.649Z,3164.00
2019-04-23T08:50:14.985Z,3144.00
2019-04-23T08:51:20.995Z,3136.00
2019-04-23T08:52:15.182Z,3124.00
2019-04-23T08:53:31.375Z,3112.00
2019-04-23T08:54:14.815Z,3096.00
2019-04-23T08:55:13.666Z,3080.00
2019-04-23T08:56:09.034Z,3064.00
2019-04-23T08:57:16.371Z,3048.00
2019-04-23T08:58:13.548Z,3036.00
2019-04-23T08:59:14.943Z,3020.00
2019-04-23T09:00:14.006Z,3008.00
2019-04-23T09:01:13.621Z,2992.00
2019-04-23T09:02:22.888Z,2976.00
2019-04-23T09:03:20.356Z,2964.00
2019-04-23T09:04:16.859Z,2952.00
2019-04-23T09:05:34.381Z,2936.00
2019-04-23T09:06:10.830Z,2924.00
2019-04-23T09:07:16.957Z,2908.00
2019-04-23T09:09:13.133Z,2884.00
2019-04-23T09:11:30.842Z,2856.00
2019-04-23T09:12:21.580Z,2848.00
2019-04-23T09:13:40.215Z,2844.00
2019-04-23T09:14:08.811Z,2836.00
2019-04-23T09:15:18.704Z,2832.00
2019-04-23T09:16:13.658Z,2828.00
2019-04-23T09:18:15.805Z,2816.00
2019-04-23T09:19:16.493Z,2816.00
2019-04-23T09:20:23.446Z,2820.00
2019-04-23T09:21:14.054Z,2828.00
2019-04-23T09:22:22.945Z,2832.00
2019-04-23T09:23:13.559Z,2832.00
2019-04-23T09:24:11.828Z,2836.00
2019-04-23T09:25:20.317Z,2840.00
2019-04-23T09:26:06.161Z,2840.00
2019-04-23T09:28:23.864Z,2856.00
2019-04-23T09:29:12.025Z,2852.00
2019-04-23T09:30:16.773Z,2844.00
2019-04-23T09:31:18.883Z,2840.00
2019-04-23T09:32:22.253Z,2832.00
2019-04-23T09:33:13.911Z,2820.00
2019-04-23T09:34:09.531Z,2792.00
2019-04-23T09:36:18.464Z,2740.00
2019-04-23T09:37:18.827Z,2724.00
2019-04-23T09:38:11.578Z,2712.00
2019-04-23T09:39:18.202Z,2696.00
2019-04-23T09:40:27.437Z,2680.00
2019-04-23T09:41:22.155Z,2672.00
2019-04-23T09:42:14.771Z,2652.00
2019-04-23T09:43:12.048Z,2644.00
2019-04-23T09:45:15.568Z,2636.00
2019-04-23T09:46:17.657Z,2644.00
2019-04-23T09:47:19.867Z,2656.00
2019-04-23T09:48:11.779Z,2664.00
2019-04-23T09:49:20.961Z,2668.00
2019-04-23T09:50:16.733Z,2684.00
2019-04-23T09:53:26.876Z,2740.00
2019-04-23T09:54:18.069Z,2768.00
2019-04-23T09:55:24.609Z,2776.00
2019-04-23T10:01:19.569Z,2912.00
2019-04-23T10:02:06.704Z,2932.00
2019-04-23T10:03:07.615Z,2952.00
2019-04-23T10:04:03.227Z,2984.00
2019-04-23T10:05:01.227Z,3016.00
2019-04-23T10:05:57.232Z,3048.00
2019-04-23T10:07:01.577Z,3068.00
2019-04-23T10:07:58.641Z,3092.00
2019-04-23T10:08:53.621Z,3108.00
2019-04-23T10:09:49.807Z,3128.00
2019-04-23T10:10:49.184Z,3148.00
2019-04-23T10:11:49.293Z,3172.00
2019-04-23T10:12:50.146Z,3200.00
2019-04-23T10:13:50.245Z,3204.00
2019-04-23T10:14:59.338Z,3232.00
2019-04-23T10:15:50.312Z,3240.00
2019-04-23T10:16:49.383Z,3224.00
2019-04-23T10:17:50.000Z,3232.00
2019-04-23T10:18:49.167Z,3256.00
2019-04-23T10:19:48.750Z,3264.00
2019-04-23T10:20:49.041Z,3280.00
2019-04-23T10:21:49.177Z,3288.00
2019-04-23T10:22:50.329Z,3324.00
2019-04-23T10:23:49.616Z,3352.00
2019-04-23T10:24:48.940Z,3376.00
2019-04-23T10:25:49.946Z,3408.00
2019-04-23T10:26:50.195Z,3456.00
2019-04-23T10:28:49.760Z,3496.00
2019-04-23T10:29:50.000Z,3512.00
2019-04-23T10:30:49.146Z,3536.00
2019-04-23T10:31:49.496Z,3548.00
2019-04-23T10:32:49.579Z,3564.00
2019-04-23T10:33:50.397Z,3572.00
2019-04-23T10:35:01.598Z,3576.00
2019-04-23T10:35:58.457Z,3580.00
2019-04-23T10:36:49.588Z,3596.00
2019-04-23T10:37:56.561Z,3592.00
2019-04-23T10:38:55.994Z,3612.00
2019-04-23T10:39:54.872Z,3644.00
2019-04-23T10:40:50.233Z,3656.00
2019-04-23T10:41:52.249Z,3672.00
2019-04-23T10:42:51.796Z,3692.00
2019-04-23T10:43:52.374Z,3708.00
2019-04-23T10:44:52.148Z,3724.00
2019-04-23T10:46:12.114Z,3736.00
2019-04-23T10:47:15.215Z,3752.00
2019-04-23T10:49:31.692Z,3816.00
2019-04-23T10:50:24.757Z,3824.00
2019-04-23T10:51:26.025Z,3828.00
2019-04-23T10:54:26.386Z,3892.00
2019-04-23T10:55:11.982Z,3940.00
2019-04-23T10:56:21.407Z,3968.00
2019-04-23T10:57:28.254Z,3992.00
2019-04-23T10:59:21.259Z,4048.00
2019-04-23T11:00:16.090Z,4048.00
2019-04-23T11:01:23.268Z,4052.00
2019-04-23T11:02:36.338Z,4072.00
2019-04-23T11:03:35.334Z,4100.00
2019-04-23T11:04:32.942Z,4112.00
2019-04-23T11:05:37.755Z,4132.00
2019-04-23T11:06:23.335Z,4156.00
2019-04-23T11:07:29.856Z,4172.00
2019-04-23T11:08:19.034Z,4180.00
2019-04-23T11:09:34.810Z,4184.00
2019-04-23T11:10:21.361Z,4196.00
2019-04-23T11:11:25.513Z,4204.00
2019-04-23T11:12:32.702Z,4212.00
2019-04-23T11:13:25.617Z,4244.00
2019-04-23T11:14:25.159Z,4272.00
2019-04-23T11:15:26.446Z,4300.00
2019-04-23T11:17:25.965Z,4320.00
2019-04-23T11:18:24.663Z,4348.00
2019-04-23T11:19:25.717Z,4368.00
2019-04-23T11:21:28.324Z,4420.00
2019-04-23T11:22:36.173Z,4464.00
2019-04-23T11:23:19.201Z,4512.00
2019-04-23T11:24:30.534Z,4548.00
2019-04-23T11:26:26.407Z,4596.00
2019-04-23T11:27:24.485Z,4608.00
2019-04-23T11:28:33.313Z,4628.00
2019-04-23T11:29:28.026Z,4660.00
2019-04-23T11:32:41.159Z,4752.00
2019-04-23T11:33:25.664Z,4788.00
2019-04-23T11:34:34.177Z,4832.00
2019-04-23T11:37:36.243Z,4976.00
2019-04-23T11:37:58.722Z,4720.00
2019-04-23T11:38:50.284Z,5024.00
2019-04-23T11:39:24.312Z,5076.00
2019-04-23T11:40:21.291Z,5140.00
2019-04-23T11:41:27.765Z,5204.00
2019-04-23T11:43:20.541Z,5324.00
2019-04-23T11:46:43.534Z,5524.00
2019-04-23T11:47:46.944Z,5576.00
2019-04-23T11:49:34.748Z,5648.00
2019-04-23T11:50:27.814Z,5680.00
2019-04-23T11:51:07.307Z,5392.00
2019-04-23T11:52:30.725Z,5768.00
2019-04-23T11:53:29.701Z,5804.00
2019-04-23T11:54:25.779Z,5844.00
2019-04-23T11:55:37.546Z,5896.00
2019-04-23T11:56:35.340Z,5944.00
2019-04-23T11:57:31.024Z,5984.00
2019-04-23T11:58:20.441Z,6016.00
2019-04-23T11:59:31.662Z,6052.00
2019-04-23T12:00:31.348Z,6088.00
2019-04-23T12:02:22.059Z,6128.00
2019-04-23T12:06:32.833Z,6064.00
2019-04-23T12:07:26.277Z,6064.00
2019-04-23T12:08:40.151Z,6064.00
2019-04-23T12:12:23.897Z,6028.00
2019-04-23T12:14:31.070Z,6016.00
2019-04-23T12:15:25.376Z,6020.00
2019-04-23T12:16:27.997Z,6024.00
2019-04-23T12:17:38.122Z,6036.00
2019-04-23T12:18:28.291Z,6036.00
2019-04-23T12:19:51.319Z,6052.00
2019-04-23T12:20:25.322Z,6072.00
2019-04-23T12:21:35.723Z,6080.00
2019-04-23T12:22:26.995Z,6084.00
2019-04-23T12:24:51.706Z,6104.00
2019-04-23T12:26:29.733Z,6160.00
2019-04-23T12:27:27.439Z,6164.00
2019-04-23T12:28:23.098Z,6196.00
2019-04-23T12:29:27.416Z,6224.00
2019-04-23T12:30:25.321Z,6248.00
2019-04-23T12:31:26.689Z,6280.00
2019-04-23T12:33:31.844Z,6332.00
2019-04-23T12:34:27.077Z,6352.00
2019-04-23T12:35:19.193Z,6376.00
2019-04-23T12:36:28.294Z,6400.00
2019-04-23T12:38:22.121Z,6516.00
2019-04-23T12:39:30.786Z,6564.00
2019-04-23T12:40:25.058Z,6596.00
2019-04-23T12:41:26.506Z,6632.00
2019-04-23T12:42:45.196Z,6676.00
2019-04-23T12:43:18.914Z,6732.00
2019-04-23T12:46:25.648Z,7016.00
2019-04-23T12:47:38.145Z,7164.00
2019-04-23T12:48:33.923Z,7268.00
2019-04-23T12:49:45.881Z,7304.00
2019-04-23T12:51:26.418Z,7512.00
2019-04-23T12:52:28.478Z,7660.00
2019-04-23T12:53:32.139Z,7892.00
2019-04-23T12:54:31.928Z,8096.00
2019-04-23T12:56:34.432Z,8412.00
2019-04-23T12:57:32.266Z,8672.00
2019-04-23T12:58:26.939Z,8864.00
2019-04-23T12:59:25.298Z,9072.00
2019-04-23T13:00:28.830Z,9256.00
2019-04-23T13:01:27.558Z,9472.00
2019-04-23T13:02:35.040Z,9588.00
2019-04-23T13:03:28.758Z,9820.00
2019-04-23T13:04:26.122Z,9868.00
2019-04-23T13:05:31.385Z,9808.00
2019-04-23T13:06:22.119Z,9928.00
2019-04-23T13:07:33.721Z,10144.00
2019-04-23T13:09:39.676Z,10200.00
2019-04-23T13:11:23.268Z,10284.00
2019-04-23T13:11:30.197Z,10492.00
2019-04-23T13:12:40.014Z,10704.00
2019-04-23T13:14:30.690Z,11368.00
2019-04-23T13:15:22.665Z,11388.00
2019-04-23T13:16:25.346Z,11164.00
2019-04-23T13:17:30.054Z,11236.00
2019-04-23T13:18:26.825Z,11200.00
2019-04-23T13:19:33.413Z,11496.00
2019-04-23T13:20:23.592Z,11624.00
2019-04-23T13:21:47.582Z,11748.00
2019-04-23T13:22:31.521Z,11960.00
2019-04-23T13:23:22.253Z,12332.00
2019-04-23T13:24:26.007Z,13172.00
2019-04-23T13:25:32.552Z,13700.00
2019-04-23T13:26:09.662Z,14060.00
2019-04-23T13:27:29.378Z,14100.00
2019-04-23T13:29:32.537Z,14864.00
2019-04-23T13:30:31.596Z,15000.00
2019-04-23T13:31:36.312Z,15172.00
2019-04-23T13:32:29.285Z,15476.00
2019-04-23T13:35:42.972Z,15636.00
2019-04-23T13:37:29.395Z,15868.00
2019-04-23T13:38:35.061Z,15696.00
2019-04-23T13:39:30.270Z,15940.00
2019-04-23T13:40:31.879Z,15800.00
2019-04-23T13:41:20.239Z,15940.00
2019-04-23T13:42:34.966Z,16348.00
2019-04-23T13:44:27.668Z,18020.00
2019-04-23T13:45:49.767Z,18472.00
2019-04-23T13:46:23.073Z,18736.00
2019-04-23T13:47:50.817Z,19648.00
2019-04-23T13:48:30.100Z,21088.00
2019-04-23T13:49:26.320Z,24096.00
2019-04-23T13:50:38.546Z,35200.00
2019-04-23T13:51:25.977Z,42944.00
2019-04-23T13:52:51.551Z,38976.00
2019-04-23T13:53:35.496Z,38624.00
2019-04-23T13:54:46.634Z,36128.00
2019-04-23T13:55:24.340Z,33440.00
2019-04-23T13:58:22.594Z,32512.00
2019-04-23T13:59:29.051Z,32192.00
2019-04-23T14:00:34.777Z,31392.00
2019-04-23T14:02:36.933Z,31680.00
2019-04-23T14:03:30.309Z,33568.00
2019-04-23T14:04:38.228Z,36032.00
2019-04-23T14:05:29.112Z,36032.00
2019-04-23T14:06:29.361Z,34560.00
2019-04-23T14:07:34.628Z,34784.00
2019-04-23T14:08:45.089Z,36128.00
2019-04-23T14:09:41.843Z,38144.00
2019-04-23T14:10:39.721Z,39104.00
2019-04-23T14:12:34.843Z,39136.00
2019-04-23T14:14:34.498Z,38720.00
2019-04-23T14:15:36.884Z,37920.00
2019-04-23T14:17:38.040Z,37024.00
2019-04-23T14:19:16.462Z,38080.00
2019-04-23T14:20:28.055Z,37600.00
2019-04-23T14:23:39.792Z,35168.00
2019-04-23T14:25:50.546Z,35552.00
2019-04-23T14:27:26.570Z,35328.00
2019-04-23T14:28:28.906Z,34496.00
2019-04-23T14:29:28.125Z,33248.00
2019-04-23T14:30:51.013Z,32928.00
2019-04-23T14:31:21.890Z,33056.00
2019-04-23T14:33:36.996Z,30368.00
2019-04-23T14:34:31.265Z,29888.00
2019-04-23T14:35:40.647Z,29600.00
2019-04-23T14:36:25.355Z,30016.00
2019-04-23T14:37:24.558Z,29888.00
2019-04-23T14:39:28.694Z,29536.00
2019-04-23T14:40:37.489Z,28288.00
2019-04-23T14:41:26.156Z,28768.00
2019-04-23T14:42:33.371Z,28064.00
2019-04-23T14:43:49.300Z,27616.00
2019-04-23T14:44:23.729Z,26944.00
2019-04-23T14:45:46.758Z,26176.00
2019-04-23T14:46:43.789Z,25216.00
2019-04-23T14:47:31.079Z,25600.00
2019-04-23T14:48:23.121Z,23904.00
2019-04-23T14:50:32.002Z,21888.00
2019-04-23T14:51:47.782Z,21728.00
2019-04-23T14:52:28.687Z,22240.00
2019-04-23T14:53:30.410Z,21120.00
2019-04-23T14:55:04.135Z,20736.00
2019-04-23T14:57:34.114Z,26976.00
2019-04-23T14:59:16.334Z,31456.00
2019-04-23T15:00:33.498Z,32864.00
2019-04-23T15:02:37.268Z,32128.00
2019-04-23T15:03:32.527Z,30496.00
2019-04-23T15:04:27.257Z,29696.00
2019-04-23T15:07:31.225Z,29088.00
2019-04-23T15:08:32.303Z,28320.00
2019-04-23T15:09:52.739Z,28544.00
2019-04-23T15:10:34.770Z,29216.00
2019-04-23T15:11:34.634Z,27776.00
2019-04-23T15:12:30.452Z,28864.00
2019-04-23T15:13:28.080Z,29248.00
2019-04-23T15:14:34.317Z,27232.00
2019-04-23T15:15:27.043Z,27104.00
2019-04-23T15:16:32.424Z,26400.00
2019-04-23T15:17:28.910Z,26496.00
2019-04-23T15:18:41.175Z,26656.00
2019-04-23T15:19:37.691Z,26624.00
2019-04-23T15:20:32.987Z,27968.00
2019-04-23T15:23:47.484Z,28064.00
2019-04-23T15:24:27.960Z,28512.00
2019-04-23T15:25:32.230Z,27744.00
2019-04-23T15:28:08.863Z,25440.00
2019-04-23T15:29:13.326Z,26080.00
2019-04-23T15:30:21.573Z,26688.00
2019-04-23T15:32:34.938Z,26112.00
2019-04-23T15:33:38.943Z,26240.00
2019-04-23T15:34:25.549Z,27552.00
2019-04-23T15:35:55.491Z,27648.00
2019-04-23T15:37:39.649Z,27296.00
2019-04-23T15:38:43.310Z,27296.00
2019-04-23T15:40:26.923Z,27104.00
2019-04-23T15:41:40.498Z,26976.00
2019-04-23T15:43:30.552Z,26208.00
2019-04-23T15:44:25.254Z,26528.00
2019-04-23T15:45:32.677Z,26016.00
2019-04-23T15:46:37.115Z,25408.00
2019-04-23T15:47:32.684Z,24832.00
2019-04-23T15:48:31.969Z,24480.00
2019-04-23T15:49:26.615Z,23968.00
2019-04-23T15:51:35.446Z,23200.00
2019-04-23T15:53:24.565Z,21088.00
2019-04-23T15:54:35.350Z,20064.00
2019-04-23T15:55:27.791Z,20192.00
2019-04-23T15:57:45.046Z,19520.00
2019-04-23T15:58:37.077Z,18496.00
2019-04-23T15:59:34.957Z,17280.00
2019-04-23T16:02:02.087Z,16248.00
2019-04-23T16:03:01.974Z,15460.00
2019-04-23T16:04:03.405Z,14692.00
2019-04-23T16:05:03.639Z,14028.00
2019-04-23T16:06:02.607Z,13768.00